sensor_id;sensor_type;location;lat;lon;timestamp;P1;durP1;ratioP1;P2;durP2;ratioP2
3177;SDS011;38141;42.666;23.344;2023-02-12T00:01:34;19.80;;;11.20;;
3177;SDS011;38141;42.666;23.344;2023-02-12T00:04:01;16.40;;;10.50;;
3177;SDS011;38141;42.666;23.344;2023-02-12T00:06:28;18.67;;;11.27;;
3177;SDS011;38141;42.666;23.344;2023-02-12T00:08:56;14.80;;;9.27;;
3177;SDS011;38141;42.666;23.344;2023-02-12T00:11:24;17.10;;;10.40;;
3177;SDS011;38141;42.666;23.344;2023-02-12T00:13:52;22.67;;;12.00;;
3177;SDS011;38141;42.666;23.344;2023-02-12T00:16:20;24.53;;;10.43;;
3177;SDS011;38141;42.666;23.344;2023-02-12T00:18:50;16.90;;;10.60;;
3177;SDS011;38141;42.666;23.344;2023-02-12T00:21:17;16.73;;;10.57;;
3177;SDS011;38141;42.666;23.344;2023-02-12T00:23:45;18.43;;;10.90;;
3177;SDS011;38141;42.666;23.344;2023-02-12T00:26:14;18.50;;;10.77;;
3177;SDS011;38141;42.666;23.344;2023-02-12T00:28:42;15.63;;;10.10;;
3177;SDS011;38141;42.666;23.344;2023-02-12T00:31:10;15.90;;;10.20;;
3177;SDS011;38141;42.666;23.344;2023-02-12T00:33:38;22.93;;;11.40;;
3177;SDS011;38141;42.666;23.344;2023-02-12T00:36:06;17.63;;;11.43;;
3177;SDS011;38141;42.666;23.344;2023-02-12T00:38:33;17.70;;;10.30;;
3177;SDS011;38141;42.666;23.344;2023-02-12T00:41:00;21.20;;;11.37;;
3177;SDS011;38141;42.666;23.344;2023-02-12T00:43:29;17.00;;;10.10;;
3177;SDS011;38141;42.666;23.344;2023-02-12T00:45:55;19.23;;;10.80;;
3177;SDS011;38141;42.666;23.344;2023-02-12T00:48:22;19.67;;;10.17;;
3177;SDS011;38141;42.666;23.344;2023-02-12T00:50:49;20.17;;;10.90;;
3177;SDS011;38141;42.666;23.344;2023-02-12T00:53:16;18.13;;;9.20;;
3177;SDS011;38141;42.666;23.344;2023-02-12T00:55:43;14.70;;;9.47;;
3177;SDS011;38141;42.666;23.344;2023-02-12T00:58:11;18.37;;;11.23;;
3177;SDS011;38141;42.666;23.344;2023-02-12T01:00:39;16.87;;;10.33;;
3177;SDS011;38141;42.666;23.344;2023-02-12T01:03:05;19.70;;;10.73;;
3177;SDS011;38141;42.666;23.344;2023-02-12T01:05:32;17.17;;;10.70;;
3177;SDS011;38141;42.666;23.344;2023-02-12T01:07:59;15.27;;;9.53;;
3177;SDS011;38141;42.666;23.344;2023-02-12T01:10:26;16.70;;;9.90;;
3177;SDS011;38141;42.666;23.344;2023-02-12T01:12:53;17.53;;;9.50;;
3177;SDS011;38141;42.666;23.344;2023-02-12T01:15:20;17.23;;;10.70;;
3177;SDS011;38141;42.666;23.344;2023-02-12T01:17:49;16.37;;;9.63;;
3177;SDS011;38141;42.666;23.344;2023-02-12T01:20:18;16.70;;;10.07;;
3177;SDS011;38141;42.666;23.344;2023-02-12T01:22:46;17.63;;;9.80;;
3177;SDS011;38141;42.666;23.344;2023-02-12T01:25:13;19.33;;;10.40;;
3177;SDS011;38141;42.666;23.344;2023-02-12T01:27:40;17.57;;;10.43;;
3177;SDS011;38141;42.666;23.344;2023-02-12T01:30:08;17.07;;;10.47;;
3177;SDS011;38141;42.666;23.344;2023-02-12T01:32:36;21.03;;;12.07;;
3177;SDS011;38141;42.666;23.344;2023-02-12T01:35:06;19.97;;;11.43;;
3177;SDS011;38141;42.666;23.344;2023-02-12T01:37:35;17.87;;;10.23;;
3177;SDS011;38141;42.666;23.344;2023-02-12T01:40:02;17.63;;;10.90;;
3177;SDS011;38141;42.666;23.344;2023-02-12T01:42:29;18.70;;;12.40;;
3177;SDS011;38141;42.666;23.344;2023-02-12T01:48:00;20.40;;;11.60;;
3177;SDS011;38141;42.666;23.344;2023-02-12T01:50:28;17.53;;;11.17;;
3177;SDS011;38141;42.666;23.344;2023-02-12T01:52:55;20.10;;;12.00;;
3177;SDS011;38141;42.666;23.344;2023-02-12T01:55:24;22.07;;;11.73;;
3177;SDS011;38141;42.666;23.344;2023-02-12T01:57:51;22.50;;;12.87;;
3177;SDS011;38141;42.666;23.344;2023-02-12T02:00:19;16.40;;;11.50;;
3177;SDS011;38141;42.666;23.344;2023-02-12T02:02:48;21.60;;;11.93;;
3177;SDS011;38141;42.666;23.344;2023-02-12T02:05:20;18.80;;;12.00;;
3177;SDS011;38141;42.666;23.344;2023-02-12T02:07:51;23.87;;;13.50;;
3177;SDS011;38141;42.666;23.344;2023-02-12T02:10:18;21.73;;;12.17;;
3177;SDS011;38141;42.666;23.344;2023-02-12T02:12:45;18.83;;;11.33;;
3177;SDS011;38141;42.666;23.344;2023-02-12T02:15:30;23.03;;;13.10;;
3177;SDS011;38141;42.666;23.344;2023-02-12T02:17:58;22.07;;;12.90;;
3177;SDS011;38141;42.666;23.344;2023-02-12T02:20:32;22.63;;;12.60;;
3177;SDS011;38141;42.666;23.344;2023-02-12T02:23:36;24.13;;;13.50;;
3177;SDS011;38141;42.666;23.344;2023-02-12T02:26:18;21.70;;;12.97;;
3177;SDS011;38141;42.666;23.344;2023-02-12T02:28:59;23.27;;;13.70;;
3177;SDS011;38141;42.666;23.344;2023-02-12T02:31:41;24.90;;;13.70;;
3177;SDS011;38141;42.666;23.344;2023-02-12T02:34:10;25.60;;;13.70;;
3177;SDS011;38141;42.666;23.344;2023-02-12T02:36:46;24.10;;;13.77;;
3177;SDS011;38141;42.666;23.344;2023-02-12T02:39:21;23.03;;;13.00;;
3177;SDS011;38141;42.666;23.344;2023-02-12T02:41:55;18.33;;;13.10;;
3177;SDS011;38141;42.666;23.344;2023-02-12T02:44:26;23.13;;;13.10;;
3177;SDS011;38141;42.666;23.344;2023-02-12T02:47:00;25.30;;;13.67;;
3177;SDS011;38141;42.666;23.344;2023-02-12T02:49:31;25.67;;;13.37;;
3177;SDS011;38141;42.666;23.344;2023-02-12T02:52:04;25.97;;;13.37;;
3177;SDS011;38141;42.666;23.344;2023-02-12T02:54:35;24.87;;;13.60;;
3177;SDS011;38141;42.666;23.344;2023-02-12T02:57:07;21.57;;;13.27;;
3177;SDS011;38141;42.666;23.344;2023-02-12T02:59:40;21.07;;;12.90;;
3177;SDS011;38141;42.666;23.344;2023-02-12T03:02:13;19.77;;;12.67;;
3177;SDS011;38141;42.666;23.344;2023-02-12T03:04:45;21.30;;;13.40;;
3177;SDS011;38141;42.666;23.344;2023-02-12T03:07:16;21.13;;;13.43;;
3177;SDS011;38141;42.666;23.344;2023-02-12T03:09:51;24.00;;;12.97;;
3177;SDS011;38141;42.666;23.344;2023-02-12T03:12:23;27.13;;;15.20;;
3177;SDS011;38141;42.666;23.344;2023-02-12T03:14:56;22.30;;;13.30;;
3177;SDS011;38141;42.666;23.344;2023-02-12T03:17:30;23.23;;;13.37;;
3177;SDS011;38141;42.666;23.344;2023-02-12T03:20:01;24.80;;;13.43;;
3177;SDS011;38141;42.666;23.344;2023-02-12T03:22:32;19.60;;;12.80;;
3177;SDS011;38141;42.666;23.344;2023-02-12T03:25:03;21.97;;;14.00;;
3177;SDS011;38141;42.666;23.344;2023-02-12T03:27:36;24.07;;;14.20;;
3177;SDS011;38141;42.666;23.344;2023-02-12T03:30:06;22.17;;;13.87;;
3177;SDS011;38141;42.666;23.344;2023-02-12T03:32:39;26.50;;;14.83;;
3177;SDS011;38141;42.666;23.344;2023-02-12T03:35:13;25.33;;;14.50;;
3177;SDS011;38141;42.666;23.344;2023-02-12T03:37:45;25.03;;;14.73;;
3177;SDS011;38141;42.666;23.344;2023-02-12T03:40:22;24.03;;;14.37;;
3177;SDS011;38141;42.666;23.344;2023-02-12T03:42:55;28.60;;;15.73;;
3177;SDS011;38141;42.666;23.344;2023-02-12T03:45:30;24.43;;;14.67;;
3177;SDS011;38141;42.666;23.344;2023-02-12T03:48:07;26.33;;;16.43;;
3177;SDS011;38141;42.666;23.344;2023-02-12T03:50:39;25.47;;;15.80;;
3177;SDS011;38141;42.666;23.344;2023-02-12T03:53:11;26.97;;;15.63;;
3177;SDS011;38141;42.666;23.344;2023-02-12T03:55:39;26.67;;;15.13;;
3177;SDS011;38141;42.666;23.344;2023-02-12T03:58:09;28.00;;;15.70;;
3177;SDS011;38141;42.666;23.344;2023-02-12T04:00:41;29.03;;;16.50;;
3177;SDS011;38141;42.666;23.344;2023-02-12T04:03:10;25.00;;;15.70;;
3177;SDS011;38141;42.666;23.344;2023-02-12T04:05:37;31.50;;;16.77;;
3177;SDS011;38141;42.666;23.344;2023-02-12T04:08:05;28.80;;;15.80;;
3177;SDS011;38141;42.666;23.344;2023-02-12T04:10:36;32.60;;;16.90;;
3177;SDS011;38141;42.666;23.344;2023-02-12T04:13:10;30.63;;;16.63;;
3177;SDS011;38141;42.666;23.344;2023-02-12T04:15:53;26.00;;;14.70;;
3177;SDS011;38141;42.666;23.344;2023-02-12T04:18:34;31.27;;;16.17;;
3177;SDS011;38141;42.666;23.344;2023-02-12T04:21:08;26.03;;;15.30;;
3177;SDS011;38141;42.666;23.344;2023-02-12T04:23:46;25.90;;;16.30;;
3177;SDS011;38141;42.666;23.344;2023-02-12T04:26:23;24.87;;;14.93;;
3177;SDS011;38141;42.666;23.344;2023-02-12T04:29:07;32.87;;;16.77;;
3177;SDS011;38141;42.666;23.344;2023-02-12T04:31:43;26.50;;;15.30;;
3177;SDS011;38141;42.666;23.344;2023-02-12T04:34:17;28.50;;;17.23;;
3177;SDS011;38141;42.666;23.344;2023-02-12T04:36:53;31.10;;;16.60;;
3177;SDS011;38141;42.666;23.344;2023-02-12T04:39:24;25.90;;;15.60;;
3177;SDS011;38141;42.666;23.344;2023-02-12T04:41:53;30.33;;;16.33;;
3177;SDS011;38141;42.666;23.344;2023-02-12T04:44:25;33.17;;;16.37;;
3177;SDS011;38141;42.666;23.344;2023-02-12T04:46:53;122.07;;;54.10;;
3177;SDS011;38141;42.666;23.344;2023-02-12T04:49:22;36.80;;;17.60;;
3177;SDS011;38141;42.666;23.344;2023-02-12T04:51:49;26.43;;;16.10;;
3177;SDS011;38141;42.666;23.344;2023-02-12T04:54:17;27.47;;;15.73;;
3177;SDS011;38141;42.666;23.344;2023-02-12T04:56:45;26.87;;;14.97;;
3177;SDS011;38141;42.666;23.344;2023-02-12T04:59:12;27.10;;;15.97;;
3177;SDS011;38141;42.666;23.344;2023-02-12T05:01:39;30.80;;;16.40;;
3177;SDS011;38141;42.666;23.344;2023-02-12T05:04:09;28.20;;;15.50;;
3177;SDS011;38141;42.666;23.344;2023-02-12T05:06:38;27.93;;;15.70;;
3177;SDS011;38141;42.666;23.344;2023-02-12T05:09:06;24.60;;;14.80;;
3177;SDS011;38141;42.666;23.344;2023-02-12T05:11:33;27.73;;;15.90;;
3177;SDS011;38141;42.666;23.344;2023-02-12T05:14:00;25.70;;;15.63;;
3177;SDS011;38141;42.666;23.344;2023-02-12T05:16:27;32.63;;;15.83;;
3177;SDS011;38141;42.666;23.344;2023-02-12T05:18:54;27.57;;;15.10;;
3177;SDS011;38141;42.666;23.344;2023-02-12T05:21:20;26.47;;;14.77;;
3177;SDS011;38141;42.666;23.344;2023-02-12T05:23:49;25.20;;;14.50;;
3177;SDS011;38141;42.666;23.344;2023-02-12T05:26:16;28.33;;;16.07;;
3177;SDS011;38141;42.666;23.344;2023-02-12T05:28:44;22.70;;;13.50;;
3177;SDS011;38141;42.666;23.344;2023-02-12T05:31:12;26.27;;;14.47;;
3177;SDS011;38141;42.666;23.344;2023-02-12T05:33:42;26.97;;;14.10;;
3177;SDS011;38141;42.666;23.344;2023-02-12T05:36:10;25.40;;;14.67;;
3177;SDS011;38141;42.666;23.344;2023-02-12T05:38:38;20.60;;;12.27;;
3177;SDS011;38141;42.666;23.344;2023-02-12T05:41:07;24.73;;;13.87;;
3177;SDS011;38141;42.666;23.344;2023-02-12T05:43:36;21.43;;;13.20;;
3177;SDS011;38141;42.666;23.344;2023-02-12T05:46:04;26.00;;;13.67;;
3177;SDS011;38141;42.666;23.344;2023-02-12T05:48:32;20.03;;;12.07;;
3177;SDS011;38141;42.666;23.344;2023-02-12T05:51:02;25.80;;;13.83;;
3177;SDS011;38141;42.666;23.344;2023-02-12T05:53:30;22.17;;;13.50;;
3177;SDS011;38141;42.666;23.344;2023-02-12T05:56:08;26.17;;;13.83;;
3177;SDS011;38141;42.666;23.344;2023-02-12T05:58:35;32.53;;;15.20;;
3177;SDS011;38141;42.666;23.344;2023-02-12T06:01:07;31.83;;;14.77;;
3177;SDS011;38141;42.666;23.344;2023-02-12T06:03:41;26.17;;;14.60;;
3177;SDS011;38141;42.666;23.344;2023-02-12T06:06:09;27.90;;;15.07;;
3177;SDS011;38141;42.666;23.344;2023-02-12T06:08:37;27.27;;;14.67;;
3177;SDS011;38141;42.666;23.344;2023-02-12T06:11:05;22.17;;;13.70;;
3177;SDS011;38141;42.666;23.344;2023-02-12T06:13:35;25.23;;;13.63;;
3177;SDS011;38141;42.666;23.344;2023-02-12T06:16:02;25.80;;;14.00;;
3177;SDS011;38141;42.666;23.344;2023-02-12T06:18:31;27.00;;;13.23;;
3177;SDS011;38141;42.666;23.344;2023-02-12T06:21:01;26.47;;;14.23;;
3177;SDS011;38141;42.666;23.344;2023-02-12T06:23:28;19.77;;;12.30;;
3177;SDS011;38141;42.666;23.344;2023-02-12T06:25:55;24.97;;;12.80;;
3177;SDS011;38141;42.666;23.344;2023-02-12T06:28:23;24.97;;;13.63;;
3177;SDS011;38141;42.666;23.344;2023-02-12T06:30:53;24.53;;;12.73;;
3177;SDS011;38141;42.666;23.344;2023-02-12T06:33:20;27.97;;;13.03;;
3177;SDS011;38141;42.666;23.344;2023-02-12T06:35:47;21.03;;;12.47;;
3177;SDS011;38141;42.666;23.344;2023-02-12T06:38:13;25.40;;;13.50;;
3177;SDS011;38141;42.666;23.344;2023-02-12T06:40:40;28.23;;;12.50;;
3177;SDS011;38141;42.666;23.344;2023-02-12T06:43:07;19.37;;;11.97;;
3177;SDS011;38141;42.666;23.344;2023-02-12T06:45:36;25.97;;;12.43;;
3177;SDS011;38141;42.666;23.344;2023-02-12T06:48:03;21.23;;;12.03;;
3177;SDS011;38141;42.666;23.344;2023-02-12T06:50:30;23.17;;;12.27;;
3177;SDS011;38141;42.666;23.344;2023-02-12T06:52:57;20.57;;;12.23;;
3177;SDS011;38141;42.666;23.344;2023-02-12T06:55:24;22.83;;;12.30;;
3177;SDS011;38141;42.666;23.344;2023-02-12T06:57:51;21.80;;;11.80;;
3177;SDS011;38141;42.666;23.344;2023-02-12T07:00:18;19.83;;;11.57;;
3177;SDS011;38141;42.666;23.344;2023-02-12T07:02:52;20.47;;;12.47;;
3177;SDS011;38141;42.666;23.344;2023-02-12T07:05:19;22.87;;;11.40;;
3177;SDS011;38141;42.666;23.344;2023-02-12T07:07:47;23.80;;;11.87;;
3177;SDS011;38141;42.666;23.344;2023-02-12T07:10:13;21.53;;;12.63;;
3177;SDS011;38141;42.666;23.344;2023-02-12T07:12:40;22.47;;;12.43;;
3177;SDS011;38141;42.666;23.344;2023-02-12T07:15:10;20.57;;;12.20;;
3177;SDS011;38141;42.666;23.344;2023-02-12T07:17:37;20.40;;;13.23;;
3177;SDS011;38141;42.666;23.344;2023-02-12T07:20:08;25.60;;;12.53;;
3177;SDS011;38141;42.666;23.344;2023-02-12T07:22:36;21.43;;;12.20;;
3177;SDS011;38141;42.666;23.344;2023-02-12T07:25:03;22.37;;;12.80;;
3177;SDS011;38141;42.666;23.344;2023-02-12T07:27:30;23.70;;;13.40;;
3177;SDS011;38141;42.666;23.344;2023-02-12T07:29:57;25.33;;;13.43;;
3177;SDS011;38141;42.666;23.344;2023-02-12T07:32:24;23.03;;;13.67;;
3177;SDS011;38141;42.666;23.344;2023-02-12T07:34:51;25.27;;;13.23;;
3177;SDS011;38141;42.666;23.344;2023-02-12T07:37:19;22.40;;;13.53;;
3177;SDS011;38141;42.666;23.344;2023-02-12T07:39:47;24.23;;;14.40;;
3177;SDS011;38141;42.666;23.344;2023-02-12T07:42:14;26.47;;;15.03;;
3177;SDS011;38141;42.666;23.344;2023-02-12T07:44:40;25.80;;;16.63;;
3177;SDS011;38141;42.666;23.344;2023-02-12T07:47:07;32.17;;;18.00;;
3177;SDS011;38141;42.666;23.344;2023-02-12T07:49:34;34.07;;;19.23;;
3177;SDS011;38141;42.666;23.344;2023-02-12T07:52:01;31.77;;;17.40;;
3177;SDS011;38141;42.666;23.344;2023-02-12T07:54:29;32.03;;;16.70;;
3177;SDS011;38141;42.666;23.344;2023-02-12T07:56:56;34.17;;;17.57;;
3177;SDS011;38141;42.666;23.344;2023-02-12T07:59:22;27.97;;;16.03;;
3177;SDS011;38141;42.666;23.344;2023-02-12T08:01:50;27.40;;;16.13;;
3177;SDS011;38141;42.666;23.344;2023-02-12T08:04:18;31.53;;;16.40;;
3177;SDS011;38141;42.666;23.344;2023-02-12T08:06:47;28.10;;;15.67;;
3177;SDS011;38141;42.666;23.344;2023-02-12T08:09:16;30.73;;;16.50;;
3177;SDS011;38141;42.666;23.344;2023-02-12T08:11:45;28.77;;;17.20;;
3177;SDS011;38141;42.666;23.344;2023-02-12T08:14:13;25.67;;;14.93;;
3177;SDS011;38141;42.666;23.344;2023-02-12T08:16:42;93.80;;;39.77;;
3177;SDS011;38141;42.666;23.344;2023-02-12T08:19:10;31.30;;;17.10;;
3177;SDS011;38141;42.666;23.344;2023-02-12T08:21:37;29.53;;;16.70;;
3177;SDS011;38141;42.666;23.344;2023-02-12T08:24:04;30.43;;;16.07;;
3177;SDS011;38141;42.666;23.344;2023-02-12T08:26:32;29.50;;;16.90;;
3177;SDS011;38141;42.666;23.344;2023-02-12T08:29:02;28.03;;;16.40;;
3177;SDS011;38141;42.666;23.344;2023-02-12T08:31:31;39.97;;;21.40;;
3177;SDS011;38141;42.666;23.344;2023-02-12T08:33:59;34.17;;;17.80;;
3177;SDS011;38141;42.666;23.344;2023-02-12T08:36:27;29.53;;;17.47;;
3177;SDS011;38141;42.666;23.344;2023-02-12T08:38:56;29.33;;;18.03;;
3177;SDS011;38141;42.666;23.344;2023-02-12T08:41:24;32.47;;;19.67;;
3177;SDS011;38141;42.666;23.344;2023-02-12T08:43:53;34.03;;;18.60;;
3177;SDS011;38141;42.666;23.344;2023-02-12T08:46:24;36.87;;;19.10;;
3177;SDS011;38141;42.666;23.344;2023-02-12T08:48:53;37.73;;;19.53;;
3177;SDS011;38141;42.666;23.344;2023-02-12T08:51:23;38.93;;;21.03;;
3177;SDS011;38141;42.666;23.344;2023-02-12T08:53:51;35.60;;;19.97;;
3177;SDS011;38141;42.666;23.344;2023-02-12T08:56:20;39.90;;;21.30;;
3177;SDS011;38141;42.666;23.344;2023-02-12T08:58:47;33.03;;;18.97;;
3177;SDS011;38141;42.666;23.344;2023-02-12T09:01:15;36.50;;;19.70;;
3177;SDS011;38141;42.666;23.344;2023-02-12T09:03:44;32.67;;;19.93;;
3177;SDS011;38141;42.666;23.344;2023-02-12T09:06:13;34.00;;;19.00;;
3177;SDS011;38141;42.666;23.344;2023-02-12T09:08:43;38.33;;;19.73;;
3177;SDS011;38141;42.666;23.344;2023-02-12T09:11:14;30.80;;;17.50;;
3177;SDS011;38141;42.666;23.344;2023-02-12T09:13:42;35.87;;;20.87;;
3177;SDS011;38141;42.666;23.344;2023-02-12T09:16:10;33.57;;;19.20;;
3177;SDS011;38141;42.666;23.344;2023-02-12T09:18:37;35.30;;;19.90;;
3177;SDS011;38141;42.666;23.344;2023-02-12T09:21:07;32.00;;;18.27;;
3177;SDS011;38141;42.666;23.344;2023-02-12T09:23:35;35.33;;;19.47;;
3177;SDS011;38141;42.666;23.344;2023-02-12T09:26:02;35.87;;;19.73;;
3177;SDS011;38141;42.666;23.344;2023-02-12T09:28:30;31.37;;;18.63;;
3177;SDS011;38141;42.666;23.344;2023-02-12T09:31:04;34.17;;;19.47;;
3177;SDS011;38141;42.666;23.344;2023-02-12T09:33:31;29.87;;;17.30;;
3177;SDS011;38141;42.666;23.344;2023-02-12T09:36:00;34.80;;;18.50;;
3177;SDS011;38141;42.666;23.344;2023-02-12T09:38:29;34.50;;;19.47;;
3177;SDS011;38141;42.666;23.344;2023-02-12T09:41:02;29.53;;;17.00;;
3177;SDS011;38141;42.666;23.344;2023-02-12T09:43:52;29.87;;;18.13;;
3177;SDS011;38141;42.666;23.344;2023-02-12T09:46:25;32.83;;;18.20;;
3177;SDS011;38141;42.666;23.344;2023-02-12T09:48:56;31.10;;;17.90;;
3177;SDS011;38141;42.666;23.344;2023-02-12T09:51:32;29.87;;;18.83;;
3177;SDS011;38141;42.666;23.344;2023-02-12T09:54:02;31.80;;;18.83;;
3177;SDS011;38141;42.666;23.344;2023-02-12T09:56:32;36.07;;;18.60;;
3177;SDS011;38141;42.666;23.344;2023-02-12T09:59:03;32.90;;;18.93;;
3177;SDS011;38141;42.666;23.344;2023-02-12T10:01:32;34.67;;;19.13;;
3177;SDS011;38141;42.666;23.344;2023-02-12T10:04:00;37.53;;;20.27;;
3177;SDS011;38141;42.666;23.344;2023-02-12T10:06:32;41.17;;;20.10;;
3177;SDS011;38141;42.666;23.344;2023-02-12T10:09:10;30.73;;;19.50;;
3177;SDS011;38141;42.666;23.344;2023-02-12T10:11:54;34.77;;;19.17;;
3177;SDS011;38141;42.666;23.344;2023-02-12T10:17:28;34.10;;;19.90;;
3177;SDS011;38141;42.666;23.344;2023-02-12T10:23:02;36.07;;;20.60;;
3177;SDS011;38141;42.666;23.344;2023-02-12T10:25:48;30.10;;;19.60;;
3177;SDS011;38141;42.666;23.344;2023-02-12T10:28:20;35.07;;;19.90;;
3177;SDS011;38141;42.666;23.344;2023-02-12T10:30:52;37.43;;;21.20;;
3177;SDS011;38141;42.666;23.344;2023-02-12T10:33:24;37.33;;;21.60;;
3177;SDS011;38141;42.666;23.344;2023-02-12T10:35:55;36.87;;;22.00;;
3177;SDS011;38141;42.666;23.344;2023-02-12T10:38:28;40.87;;;22.70;;
3177;SDS011;38141;42.666;23.344;2023-02-12T10:41:01;39.43;;;21.80;;
3177;SDS011;38141;42.666;23.344;2023-02-12T10:43:28;42.37;;;21.90;;
3177;SDS011;38141;42.666;23.344;2023-02-12T10:45:55;41.87;;;23.03;;
3177;SDS011;38141;42.666;23.344;2023-02-12T10:48:24;41.30;;;22.50;;
3177;SDS011;38141;42.666;23.344;2023-02-12T10:50:58;38.57;;;22.93;;
3177;SDS011;38141;42.666;23.344;2023-02-12T10:53:39;47.27;;;24.23;;
3177;SDS011;38141;42.666;23.344;2023-02-12T10:56:13;45.97;;;24.23;;
3177;SDS011;38141;42.666;23.344;2023-02-12T10:58:50;39.67;;;23.17;;
3177;SDS011;38141;42.666;23.344;2023-02-12T11:01:19;40.10;;;24.83;;
3177;SDS011;38141;42.666;23.344;2023-02-12T11:03:51;46.60;;;24.10;;
3177;SDS011;38141;42.666;23.344;2023-02-12T11:06:22;46.43;;;24.07;;
3177;SDS011;38141;42.666;23.344;2023-02-12T11:08:52;48.60;;;23.80;;
3177;SDS011;38141;42.666;23.344;2023-02-12T11:11:22;47.13;;;25.03;;
3177;SDS011;38141;42.666;23.344;2023-02-12T11:13:53;48.93;;;26.70;;
3177;SDS011;38141;42.666;23.344;2023-02-12T11:16:26;45.03;;;25.73;;
3177;SDS011;38141;42.666;23.344;2023-02-12T11:18:56;43.53;;;25.53;;
3177;SDS011;38141;42.666;23.344;2023-02-12T11:21:24;41.27;;;23.00;;
3177;SDS011;38141;42.666;23.344;2023-02-12T11:23:51;42.27;;;25.00;;
3177;SDS011;38141;42.666;23.344;2023-02-12T11:26:24;39.80;;;23.13;;
3177;SDS011;38141;42.666;23.344;2023-02-12T11:28:54;35.63;;;22.07;;
3177;SDS011;38141;42.666;23.344;2023-02-12T11:31:24;36.63;;;22.80;;
3177;SDS011;38141;42.666;23.344;2023-02-12T11:34:08;41.87;;;23.60;;
3177;SDS011;38141;42.666;23.344;2023-02-12T11:36:41;37.60;;;22.33;;
3177;SDS011;38141;42.666;23.344;2023-02-12T11:39:15;45.47;;;24.30;;
3177;SDS011;38141;42.666;23.344;2023-02-12T11:41:49;38.37;;;24.03;;
3177;SDS011;38141;42.666;23.344;2023-02-12T11:44:19;48.77;;;27.07;;
3177;SDS011;38141;42.666;23.344;2023-02-12T11:46:52;35.63;;;20.80;;
3177;SDS011;38141;42.666;23.344;2023-02-12T11:49:22;39.10;;;23.30;;
3177;SDS011;38141;42.666;23.344;2023-02-12T11:51:52;45.90;;;23.37;;
3177;SDS011;38141;42.666;23.344;2023-02-12T11:54:21;40.13;;;22.60;;
3177;SDS011;38141;42.666;23.344;2023-02-12T11:56:52;43.27;;;24.23;;
3177;SDS011;38141;42.666;23.344;2023-02-12T11:59:25;140.73;;;59.97;;
3177;SDS011;38141;42.666;23.344;2023-02-12T12:01:58;79.70;;;39.47;;
3177;SDS011;38141;42.666;23.344;2023-02-12T12:04:29;46.93;;;25.10;;
3177;SDS011;38141;42.666;23.344;2023-02-12T12:07:10;40.67;;;23.50;;
3177;SDS011;38141;42.666;23.344;2023-02-12T12:09:40;40.63;;;23.90;;
3177;SDS011;38141;42.666;23.344;2023-02-12T12:12:12;42.60;;;23.47;;
3177;SDS011;38141;42.666;23.344;2023-02-12T12:14:45;42.70;;;23.50;;
3177;SDS011;38141;42.666;23.344;2023-02-12T12:17:35;43.73;;;22.03;;
3177;SDS011;38141;42.666;23.344;2023-02-12T12:20:28;39.27;;;22.33;;
3177;SDS011;38141;42.666;23.344;2023-02-12T12:22:59;42.53;;;23.57;;
3177;SDS011;38141;42.666;23.344;2023-02-12T12:25:30;46.77;;;26.43;;
3177;SDS011;38141;42.666;23.344;2023-02-12T12:28:08;39.90;;;24.13;;
3177;SDS011;38141;42.666;23.344;2023-02-12T12:31:01;38.00;;;23.10;;
3177;SDS011;38141;42.666;23.344;2023-02-12T12:33:34;42.30;;;23.67;;
3177;SDS011;38141;42.666;23.344;2023-02-12T12:39:11;42.63;;;24.40;;
3177;SDS011;38141;42.666;23.344;2023-02-12T12:44:23;40.93;;;23.27;;
3177;SDS011;38141;42.666;23.344;2023-02-12T12:47:01;42.60;;;23.70;;
3177;SDS011;38141;42.666;23.344;2023-02-12T12:52:34;39.30;;;21.10;;
3177;SDS011;38141;42.666;23.344;2023-02-12T12:55:42;39.63;;;23.73;;
3177;SDS011;38141;42.666;23.344;2023-02-12T12:58:19;36.60;;;21.77;;
3177;SDS011;38141;42.666;23.344;2023-02-12T13:01:02;35.00;;;21.47;;
3177;SDS011;38141;42.666;23.344;2023-02-12T13:03:44;37.53;;;21.83;;
3177;SDS011;38141;42.666;23.344;2023-02-12T13:06:46;39.77;;;23.87;;
3177;SDS011;38141;42.666;23.344;2023-02-12T13:09:44;39.57;;;23.40;;
3177;SDS011;38141;42.666;23.344;2023-02-12T13:12:35;37.50;;;22.83;;
3177;SDS011;38141;42.666;23.344;2023-02-12T13:15:16;44.83;;;24.00;;
3177;SDS011;38141;42.666;23.344;2023-02-12T13:17:52;37.40;;;23.17;;
3177;SDS011;38141;42.666;23.344;2023-02-12T13:20:30;39.47;;;22.87;;
3177;SDS011;38141;42.666;23.344;2023-02-12T13:23:10;40.60;;;22.67;;
3177;SDS011;38141;42.666;23.344;2023-02-12T13:25:42;38.70;;;23.13;;
3177;SDS011;38141;42.666;23.344;2023-02-12T13:28:20;38.33;;;22.00;;
3177;SDS011;38141;42.666;23.344;2023-02-12T13:30:52;41.60;;;22.47;;
3177;SDS011;38141;42.666;23.344;2023-02-12T13:33:24;40.23;;;24.20;;
3177;SDS011;38141;42.666;23.344;2023-02-12T13:35:54;40.70;;;23.50;;
3177;SDS011;38141;42.666;23.344;2023-02-12T13:38:26;42.30;;;23.13;;
3177;SDS011;38141;42.666;23.344;2023-02-12T13:40:58;120.90;;;57.23;;
3177;SDS011;38141;42.666;23.344;2023-02-12T13:43:37;44.30;;;24.87;;
3177;SDS011;38141;42.666;23.344;2023-02-12T13:46:17;39.57;;;23.40;;
3177;SDS011;38141;42.666;23.344;2023-02-12T13:48:55;43.60;;;23.20;;
3177;SDS011;38141;42.666;23.344;2023-02-12T13:51:42;43.10;;;24.67;;
3177;SDS011;38141;42.666;23.344;2023-02-12T13:54:18;38.87;;;23.20;;
3177;SDS011;38141;42.666;23.344;2023-02-12T13:56:51;46.10;;;25.87;;
3177;SDS011;38141;42.666;23.344;2023-02-12T14:05:22;40.60;;;24.10;;
3177;SDS011;38141;42.666;23.344;2023-02-12T14:07:52;45.20;;;24.57;;
3177;SDS011;38141;42.666;23.344;2023-02-12T14:10:24;39.10;;;24.17;;
3177;SDS011;38141;42.666;23.344;2023-02-12T14:12:55;40.80;;;23.80;;
3177;SDS011;38141;42.666;23.344;2023-02-12T14:15:31;46.30;;;24.77;;
3177;SDS011;38141;42.666;23.344;2023-02-12T14:18:04;42.07;;;24.47;;
3177;SDS011;38141;42.666;23.344;2023-02-12T14:20:47;44.77;;;25.47;;
3177;SDS011;38141;42.666;23.344;2023-02-12T14:27:28;45.80;;;24.60;;
3177;SDS011;38141;42.666;23.344;2023-02-12T14:30:25;45.27;;;26.40;;
3177;SDS011;38141;42.666;23.344;2023-02-12T14:32:56;46.47;;;24.53;;
3177;SDS011;38141;42.666;23.344;2023-02-12T14:35:38;40.37;;;23.70;;
3177;SDS011;38141;42.666;23.344;2023-02-12T14:41:23;49.70;;;25.53;;
3177;SDS011;38141;42.666;23.344;2023-02-12T14:50:13;47.00;;;25.40;;
3177;SDS011;38141;42.666;23.344;2023-02-12T14:52:57;44.87;;;25.40;;
3177;SDS011;38141;42.666;23.344;2023-02-12T14:55:30;42.37;;;25.47;;
3177;SDS011;38141;42.666;23.344;2023-02-12T14:58:02;50.90;;;25.87;;
3177;SDS011;38141;42.666;23.344;2023-02-12T15:00:33;43.23;;;25.40;;
3177;SDS011;38141;42.666;23.344;2023-02-12T15:03:11;45.80;;;25.57;;
3177;SDS011;38141;42.666;23.344;2023-02-12T15:05:46;48.00;;;26.80;;
3177;SDS011;38141;42.666;23.344;2023-02-12T15:08:21;47.47;;;26.50;;
3177;SDS011;38141;42.666;23.344;2023-02-12T15:10:54;51.90;;;27.70;;
3177;SDS011;38141;42.666;23.344;2023-02-12T15:13:30;53.50;;;27.60;;
3177;SDS011;38141;42.666;23.344;2023-02-12T15:16:11;48.00;;;27.67;;
3177;SDS011;38141;42.666;23.344;2023-02-12T15:18:48;57.80;;;28.70;;
3177;SDS011;38141;42.666;23.344;2023-02-12T15:21:21;149.63;;;66.33;;
3177;SDS011;38141;42.666;23.344;2023-02-12T15:23:59;60.60;;;34.20;;